Time;durP1;ratioP1;P1;durP2;ratioP2;P2;SDS_P1;SDS_P2;PMS_P1;PMS_P2;Temp;Humidity;BMP_temperature;BMP_pressure;BME280_temperature;BME280_humidity;BME280_pressure;Samples;Min_cycle;Max_cycle;Signal;HPM_P1;HPM_P2
2021/09/22 00:00:12;;;;;;;34.80;5.40;;;;;;;10.87;100.00;102635.25;5070654;28;20077;-80
2021/09/22 00:02:40;;;;;;;42.50;5.60;;;;;;;10.88;100.00;102639.56;5057197;28;20103;-79
2021/09/22 00:05:07;;;;;;;39.05;5.90;;;;;;;11.00;100.00;102637.91;5054442;28;20034;-80
2021/09/22 00:07:32;;;;;;;38.90;5.60;;;;;;;10.97;100.00;102638.09;5061224;28;20052;-79
2021/09/22 00:09:58;;;;;;;26.77;5.25;;;;;;;10.97;100.00;102629.41;5071362;28;20150;-80
2021/09/22 00:12:24;;;;;;;42.40;5.40;;;;;;;10.98;100.00;102636.31;5095243;28;20040;-80
2021/09/22 00:14:49;;;;;;;33.38;5.28;;;;;;;11.04;100.00;102641.19;5076938;28;20060;-80
2021/09/22 00:17:15;;;;;;;41.58;6.15;;;;;;;10.97;100.00;102640.72;5092654;28;20748;-80
2021/09/22 00:19:41;;;;;;;41.58;5.72;;;;;;;10.95;100.00;102628.66;5075078;28;20127;-80
2021/09/22 00:22:06;;;;;;;32.05;5.32;;;;;;;10.99;100.00;102630.97;5062328;28;20106;-79
2021/09/22 00:24:32;;;;;;;36.17;5.25;;;;;;;10.94;100.00;102637.47;5061461;28;20118;-79
2021/09/22 00:26:58;;;;;;;33.58;5.60;;;;;;;10.99;100.00;102640.63;5073442;28;20111;-78
2021/09/22 00:29:25;;;;;;;47.13;6.25;;;;;;;10.98;100.00;102629.31;5100488;28;20043;-77
2021/09/22 00:32:07;;;;;;;31.27;5.47;;;;;;;10.94;100.00;102634.84;5084928;28;20039;-79
2021/09/22 00:34:32;;;;;;;31.45;4.88;;;;;;;10.90;100.00;102635.03;5076242;28;20035;-79
2021/09/22 00:36:58;;;;;;;33.83;6.35;;;;;;;10.86;100.00;102635.34;5047300;28;20414;-81
2021/09/22 00:39:24;;;;;;;31.23;5.70;;;;;;;10.82;100.00;102639.97;5073192;28;20109;-79
2021/09/22 00:41:50;;;;;;;29.40;5.57;;;;;;;10.74;100.00;102629.16;5074506;28;20036;-80
2021/09/22 00:44:17;;;;;;;41.60;5.22;;;;;;;10.70;100.00;102641.63;5073967;28;20052;-78
2021/09/22 00:46:43;;;;;;;32.53;4.97;;;;;;;10.71;100.00;102635.41;5072884;28;20044;-80
2021/09/22 00:49:08;;;;;;;36.25;5.00;;;;;;;10.66;100.00;102624.41;5071470;28;20345;-80
2021/09/22 00:51:39;;;;;;;29.65;4.72;;;;;;;10.67;100.00;102638.38;5057220;28;20432;-77
2021/09/22 00:54:05;;;;;;;25.27;4.65;;;;;;;10.60;100.00;102631.81;5083648;28;20056;-79
2021/09/22 00:56:30;;;;;;;30.40;4.63;;;;;;;10.60;100.00;102639.69;5071321;28;20064;-80
2021/09/22 00:58:56;;;;;;;32.20;5.30;;;;;;;10.59;100.00;102641.50;5071882;28;20102;-79
2021/09/22 01:01:21;;;;;;;29.42;5.47;;;;;;;10.49;100.00;102648.25;5091445;28;20040;-79
2021/09/22 01:03:47;;;;;;;33.58;5.43;;;;;;;10.46;100.00;102649.31;5054412;28;20032;-78
2021/09/22 01:06:15;;;;;;;22.40;3.97;;;;;;;10.45;100.00;102631.91;5062366;28;20093;-78
2021/09/22 01:08:40;;;;;;;22.52;4.00;;;;;;;10.41;100.00;102638.25;5087574;28;20024;-78
2021/09/22 01:11:06;;;;;;;33.22;5.03;;;;;;;10.37;100.00;102631.53;5057068;28;20186;-79
2021/09/22 01:13:31;;;;;;;31.88;4.82;;;;;;;10.33;100.00;102644.00;5054575;28;20478;-77
2021/09/22 01:15:58;;;;;;;24.15;4.43;;;;;;;10.30;100.00;102632.84;5094659;28;20028;-79
2021/09/22 01:18:24;;;;;;;28.00;5.00;;;;;;;10.30;100.00;102643.31;5079101;28;20485;-78
2021/09/22 01:20:55;;;;;;;27.52;4.60;;;;;;;10.25;100.00;102640.19;5057404;28;20055;-80
2021/09/22 01:23:23;;;;;;;22.52;4.53;;;;;;;10.23;100.00;102642.91;5061923;28;20042;-80
2021/09/22 01:25:52;;;;;;;29.48;4.43;;;;;;;10.21;100.00;102631.66;5064857;28;20042;-77
2021/09/22 01:28:22;;;;;;;24.33;4.28;;;;;;;10.22;100.00;102638.56;5066228;28;20552;-79
2021/09/22 01:30:50;;;;;;;28.95;4.82;;;;;;;10.17;100.00;102639.81;5057377;28;20043;-82
2021/09/22 01:33:21;;;;;;;20.20;4.18;;;;;;;10.06;100.00;102641.34;5052808;28;20490;-79
2021/09/22 01:35:51;;;;;;;31.02;4.75;;;;;;;10.04;100.00;102645.84;5074564;28;20047;-79
2021/09/22 01:38:24;;;;;;;23.92;4.60;;;;;;;10.01;100.00;102653.06;5072761;28;20028;-80
2021/09/22 01:41:13;;;;;;;25.40;4.95;;;;;;;9.92;100.00;102639.56;5065440;28;20110;-79
2021/09/22 01:43:54;;;;;;;23.58;4.63;;;;;;;9.90;100.00;102630.97;5068730;28;20043;-80
2021/09/22 01:46:23;;;;;;;43.50;5.05;;;;;;;9.93;100.00;102637.81;5055588;28;20512;-79
2021/09/22 01:48:52;;;;;;;25.55;4.40;;;;;;;9.88;100.00;102632.00;5073875;28;20042;-81
2021/09/22 01:51:18;;;;;;;23.65;4.78;;;;;;;9.89;100.00;102642.41;5094041;28;20402;-82
2021/09/22 01:54:00;;;;;;;25.27;5.07;;;;;;;9.86;100.00;102626.84;5071673;28;20028;-80
2021/09/22 01:56:27;;;;;;;25.52;4.18;;;;;;;9.87;100.00;102627.69;5063733;28;20115;-78
2021/09/22 01:58:52;;;;;;;24.75;5.13;;;;;;;9.85;100.00;102633.03;5086785;28;20110;-80
2021/09/22 02:01:22;;;;;;;26.40;4.45;;;;;;;9.84;100.00;102636.59;5073107;28;20120;-79
2021/09/22 02:03:53;;;;;;;28.92;4.38;;;;;;;9.81;100.00;102633.31;5062797;28;20039;-80
2021/09/22 02:06:39;;;;;;;23.35;4.05;;;;;;;9.83;100.00;102629.69;5084384;28;20613;-82
2021/09/22 02:09:05;;;;;;;27.20;4.28;;;;;;;9.84;100.00;102633.13;5073488;28;20119;-78
2021/09/22 02:11:36;;;;;;;20.30;3.97;;;;;;;9.82;100.00;102627.16;5045595;28;20029;-79
2021/09/22 02:14:03;;;;;;;25.45;4.55;;;;;;;9.80;100.00;102629.03;5056056;28;20494;-82
2021/09/22 02:16:34;;;;;;;33.22;4.68;;;;;;;9.80;100.00;102624.63;5087527;28;20122;-80
2021/09/22 02:19:13;;;;;;;25.38;4.88;;;;;;;9.78;100.00;102618.63;5071654;28;20060;-79
2021/09/22 02:21:46;;;;;;;20.55;4.95;;;;;;;9.78;100.00;102628.28;5039156;28;20072;-79
2021/09/22 02:24:12;;;;;;;19.88;4.13;;;;;;;9.75;100.00;102617.03;5056152;28;20035;-81
2021/09/22 02:26:39;;;;;;;28.15;4.05;;;;;;;9.74;100.00;102620.59;5073780;28;20107;-81
2021/09/22 02:29:06;;;;;;;18.85;4.00;;;;;;;9.74;100.00;102622.38;5091230;28;20028;-80
2021/09/22 02:31:33;;;;;;;28.30;4.28;;;;;;;9.70;100.00;102624.34;5056642;28;20031;-78
2021/09/22 02:34:00;;;;;;;26.20;4.43;;;;;;;9.73;100.00;102618.06;5066420;28;20100;-80
2021/09/22 02:36:26;;;;;;;20.98;3.83;;;;;;;9.71;100.00;102626.00;5071410;28;20070;-79
2021/09/22 02:38:58;;;;;;;26.48;4.55;;;;;;;9.73;100.00;102626.75;5059869;28;20031;-79
2021/09/22 02:41:26;;;;;;;27.40;4.47;;;;;;;9.75;100.00;102629.28;5056640;28;20032;-81
2021/09/22 02:43:52;;;;;;;15.15;3.45;;;;;;;9.77;100.00;102629.22;5092457;28;20038;-80
2021/09/22 02:46:21;;;;;;;19.63;3.47;;;;;;;9.70;100.00;102618.25;5065212;28;20032;-81
2021/09/22 02:48:56;;;;;;;24.55;3.65;;;;;;;9.62;100.00;102617.88;5049342;28;20039;-79
2021/09/22 02:51:22;;;;;;;17.35;3.55;;;;;;;9.62;100.00;102610.03;5072993;28;20043;-79
2021/09/22 02:53:47;;;;;;;24.50;4.03;;;;;;;9.64;100.00;102616.00;5073193;28;20036;-79
2021/09/22 02:56:14;;;;;;;25.73;3.97;;;;;;;9.55;100.00;102607.78;5089816;28;20032;-79
2021/09/22 02:58:40;;;;;;;23.25;3.95;;;;;;;9.63;100.00;102615.19;5088176;28;20040;-79
2021/09/22 03:01:07;;;;;;;25.65;4.22;;;;;;;9.65;100.00;102605.44;5055805;28;20024;-77
2021/09/22 03:03:34;;;;;;;23.92;4.60;;;;;;;9.65;100.00;102602.81;5070406;28;20111;-76
2021/09/22 03:06:01;;;;;;;24.02;3.72;;;;;;;9.64;100.00;102611.59;5065550;28;20096;-80
2021/09/22 03:08:26;;;;;;;26.58;4.55;;;;;;;9.63;100.00;102612.56;5054273;28;20031;-78
2021/09/22 03:10:51;;;;;;;23.27;4.25;;;;;;;9.64;100.00;102606.38;5073002;28;20028;-79
2021/09/22 03:13:18;;;;;;;21.92;4.20;;;;;;;9.64;100.00;102613.38;5055842;28;20032;-80
2021/09/22 03:15:43;;;;;;;22.52;4.22;;;;;;;9.63;100.00;102616.97;5086167;28;20555;-79
2021/09/22 03:18:09;;;;;;;23.02;4.13;;;;;;;9.58;100.00;102603.31;5063749;28;20152;-79
2021/09/22 03:20:34;;;;;;;16.95;3.38;;;;;;;9.54;100.00;102608.72;5060176;28;20036;-80
2021/09/22 03:23:00;;;;;;;24.77;3.88;;;;;;;9.50;100.00;102604.59;5079287;28;20482;-78
2021/09/22 03:25:35;;;;;;;24.60;4.55;;;;;;;9.49;100.00;102609.94;5073599;28;20036;-81
2021/09/22 03:28:14;;;;;;;28.33;4.20;;;;;;;9.50;100.00;102612.47;5104604;27;20129;-74
2021/09/22 03:30:39;;;;;;;21.52;4.03;;;;;;;9.45;100.00;102608.44;5103940;28;20096;-74
2021/09/22 03:33:13;;;;;;;17.35;4.00;;;;;;;9.42;100.00;102609.47;5100987;28;20028;-75
2021/09/22 03:35:40;;;;;;;20.02;3.90;;;;;;;9.40;100.00;102606.13;5074034;28;20042;-75
2021/09/22 03:38:06;;;;;;;25.85;3.80;;;;;;;9.41;100.00;102601.72;5073604;28;20035;-75
2021/09/22 03:40:33;;;;;;;22.90;4.05;;;;;;;9.41;100.00;102607.78;5075430;28;20036;-74
2021/09/22 03:42:59;;;;;;;17.40;3.40;;;;;;;9.39;100.00;102600.97;5066168;28;20035;-74
2021/09/22 03:45:25;;;;;;;20.35;3.65;;;;;;;9.34;100.00;102599.47;5081969;28;20036;-75
2021/09/22 03:47:51;;;;;;;20.33;3.90;;;;;;;9.40;100.00;102600.00;5098635;28;20035;-76
2021/09/22 03:50:17;;;;;;;29.67;4.25;;;;;;;9.45;100.00;102604.03;5098732;28;20484;-73
2021/09/22 03:53:01;;;;;;;25.30;4.15;;;;;;;9.42;100.00;102608.63;5085553;28;20044;-75
2021/09/22 03:55:27;;;;;;;20.65;4.25;;;;;;;9.38;100.00;102609.75;5088032;28;20384;-75
2021/09/22 03:57:53;;;;;;;27.98;3.72;;;;;;;9.40;100.00;102613.97;5089734;28;20066;-75
2021/09/22 04:00:20;;;;;;;24.10;4.13;;;;;;;9.41;100.00;102618.25;5086747;28;20040;-75
2021/09/22 04:02:46;;;;;;;36.13;4.50;;;;;;;9.42;100.00;102624.34;5081466;28;20570;-76
2021/09/22 04:05:12;;;;;;;24.23;4.10;;;;;;;9.49;100.00;102626.50;5097294;28;20121;-76
2021/09/22 04:07:39;;;;;;;25.65;4.35;;;;;;;9.54;100.00;102628.84;5089317;28;20040;-75
2021/09/22 04:10:05;;;;;;;24.23;4.43;;;;;;;9.60;100.00;102630.25;5069442;28;20032;-77
2021/09/22 04:12:31;;;;;;;20.35;4.30;;;;;;;9.71;100.00;102639.13;5061390;28;20073;-77
2021/09/22 04:14:58;;;;;;;33.00;4.80;;;;;;;9.71;100.00;102630.44;5078232;28;20036;-76
2021/09/22 04:17:24;;;;;;;29.10;3.90;;;;;;;9.68;100.00;102618.38;5106585;28;20028;-75
2021/09/22 04:19:49;;;;;;;24.13;4.38;;;;;;;9.68;100.00;102614.88;5098055;28;20040;-76
2021/09/22 04:22:15;;;;;;;27.85;3.90;;;;;;;9.77;100.00;102618.72;5092673;28;20264;-75
2021/09/22 04:24:41;;;;;;;27.55;3.95;;;;;;;9.70;100.00;102608.63;5099033;28;20028;-76
2021/09/22 04:27:07;;;;;;;24.52;3.80;;;;;;;9.73;100.00;102610.22;5078567;28;20028;-76
2021/09/22 04:29:52;;;;;;;26.40;4.28;;;;;;;9.77;100.00;102614.31;5063284;28;20199;-75
2021/09/22 04:32:36;;;;;;;17.63;3.83;;;;;;;9.72;100.00;102616.41;5101926;28;20101;-76
2021/09/22 04:35:20;;;;;;;25.10;4.10;;;;;;;9.71;100.00;102609.47;5087296;28;20039;-75
2021/09/22 04:38:06;;;;;;;27.70;4.07;;;;;;;9.69;100.00;102606.09;5091029;28;20059;-74
2021/09/22 04:40:51;;;;;;;31.75;4.30;;;;;;;9.66;100.00;102603.66;5079973;28;20024;-76
2021/09/22 04:43:35;;;;;;;26.58;4.10;;;;;;;9.65;100.00;102613.31;5061318;28;20626;-74
2021/09/22 04:46:19;;;;;;;32.08;3.95;;;;;;;9.60;100.00;102607.50;5073231;28;20033;-77
2021/09/22 04:49:04;;;;;;;24.77;4.43;;;;;;;9.61;100.00;102611.81;5087002;28;20040;-74
2021/09/22 04:51:48;;;;;;;25.60;4.25;;;;;;;9.64;100.00;102606.38;5074367;28;20780;-77
2021/09/22 04:54:32;;;;;;;23.23;3.70;;;;;;;9.63;100.00;102604.69;5081719;28;20054;-76
2021/09/22 04:57:16;;;;;;;22.27;3.92;;;;;;;9.63;100.00;102611.72;5085386;28;20029;-74
2021/09/22 05:00:01;;;;;;;25.73;4.22;;;;;;;9.69;100.00;102608.72;5084059;28;20035;-74
2021/09/22 05:02:55;;;;;;;24.08;4.13;;;;;;;9.70;100.00;102602.53;5071099;28;20052;-76
2021/09/22 05:05:39;;;;;;;26.25;3.83;;;;;;;9.72;100.00;102601.50;5081367;28;20113;-75
2021/09/22 05:08:24;;;;;;;22.00;3.45;;;;;;;9.76;100.00;102617.88;5082008;28;20040;-74
2021/09/22 05:11:08;;;;;;;22.92;3.97;;;;;;;9.75;100.00;102621.44;5074269;28;20029;-73
2021/09/22 05:13:52;;;;;;;26.25;4.32;;;;;;;9.78;100.00;102629.13;5079536;28;20025;-75
2021/09/22 05:16:38;;;;;;;20.27;3.72;;;;;;;9.80;100.00;102629.84;5081691;28;20565;-75
2021/09/22 05:19:22;;;;;;;27.02;4.43;;;;;;;9.75;100.00;102624.06;5087824;28;20032;-76
2021/09/22 05:22:06;;;;;;;28.00;3.70;;;;;;;9.78;100.00;102636.97;5078381;28;20060;-75
2021/09/22 05:24:51;;;;;;;21.63;3.67;;;;;;;9.78;100.00;102636.97;5084777;28;20042;-74
2021/09/22 05:27:35;;;;;;;23.90;4.10;;;;;;;9.80;100.00;102622.00;5082024;28;20028;-74
2021/09/22 05:30:19;;;;;;;27.13;4.07;;;;;;;9.83;100.00;102623.56;5078359;28;20042;-75
2021/09/22 05:33:20;;;;;;;31.13;4.25;;;;;;;9.84;100.00;102627.88;5065279;28;20133;-75
2021/09/22 05:36:05;;;;;;;26.08;4.65;;;;;;;9.85;100.00;102637.41;5081580;28;20469;-74
2021/09/22 05:38:49;;;;;;;27.77;4.50;;;;;;;9.83;100.00;102639.31;5077820;28;20037;-74
2021/09/22 05:41:33;;;;;;;26.33;4.30;;;;;;;9.80;100.00;102634.28;5085436;28;20024;-75
2021/09/22 05:44:17;;;;;;;22.45;3.97;;;;;;;9.84;100.00;102636.59;5082625;28;20121;-75
2021/09/22 05:47:09;;;;;;;25.55;3.97;;;;;;;9.89;100.00;102631.91;5063301;28;20040;-74
2021/09/22 05:49:53;;;;;;;22.80;4.30;;;;;;;9.92;100.00;102636.94;5086239;28;20077;-75
2021/09/22 05:52:37;;;;;;;24.45;3.95;;;;;;;9.99;100.00;102644.44;5079138;28;20032;-75
2021/09/22 05:55:21;;;;;;;25.77;4.55;;;;;;;10.11;100.00;102652.38;5089151;28;20028;-75
2021/09/22 05:58:05;;;;;;;22.27;4.10;;;;;;;10.19;100.00;102648.41;5077992;28;20063;-75
2021/09/22 06:00:52;;;;;;;29.55;4.43;;;;;;;10.25;100.00;102651.50;5067938;28;20056;-73
2021/09/22 06:03:36;;;;;;;26.83;4.90;;;;;;;10.33;100.00;102645.78;5070586;28;20027;-74
2021/09/22 06:06:20;;;;;;;20.83;4.05;;;;;;;10.40;100.00;102659.38;5083660;28;20024;-75
2021/09/22 06:09:06;;;;;;;22.90;4.10;;;;;;;10.41;100.00;102647.94;5083072;28;20127;-76
2021/09/22 06:11:46;;;;;;;19.55;4.22;;;;;;;10.41;100.00;102650.53;5087122;28;20039;-76
2021/09/22 06:14:12;;;;;;;18.70;3.50;;;;;;;10.43;100.00;102656.53;5087705;28;20043;-75
2021/09/22 06:16:38;;;;;;;21.80;4.07;;;;;;;10.45;100.00;102659.91;5061415;28;20029;-74
2021/09/22 06:19:12;;;;;;;20.83;4.60;;;;;;;10.49;100.00;102659.63;5071797;28;20035;-75
2021/09/22 06:21:38;;;;;;;15.43;3.40;;;;;;;10.56;100.00;102660.03;5078890;28;20081;-75
2021/09/22 06:24:06;;;;;;;26.65;4.97;;;;;;;10.63;100.00;102658.72;5078447;28;20040;-75
2021/09/22 06:26:46;;;;;;;23.58;5.13;;;;;;;10.79;100.00;102660.31;5070288;28;20039;-75
2021/09/22 06:29:12;;;;;;;20.20;3.80;;;;;;;10.96;100.00;102659.22;5072815;28;20115;-74
2021/09/22 06:31:38;;;;;;;19.48;4.57;;;;;;;11.09;100.00;102660.06;5082637;28;20028;-75
2021/09/22 06:34:19;;;;;;;24.63;4.77;;;;;;;11.17;100.00;102652.53;5067270;28;20107;-75
2021/09/22 06:36:45;;;;;;;23.23;4.90;;;;;;;11.24;100.00;102660.81;5065686;28;20127;-75
2021/09/22 06:39:11;;;;;;;26.38;6.22;;;;;;;11.34;100.00;102663.66;5083133;28;20067;-75
2021/09/22 06:41:36;;;;;;;29.52;6.47;;;;;;;11.37;100.00;102668.72;5051621;28;20716;-74
2021/09/22 06:44:03;;;;;;;29.85;7.32;;;;;;;11.44;100.00;102665.56;5085088;28;20031;-73
2021/09/22 06:46:32;;;;;;;28.67;6.47;;;;;;;11.54;100.00;102657.88;5070651;28;20108;-73
2021/09/22 06:48:58;;;;;;;32.78;6.97;;;;;;;11.66;100.00;102656.22;5078684;28;20028;-75
2021/09/22 06:51:23;;;;;;;35.70;7.50;;;;;;;11.85;100.00;102661.84;5087598;28;20089;-76
2021/09/22 06:53:49;;;;;;;39.55;7.45;;;;;;;11.87;100.00;102659.13;5083779;28;20116;-74
2021/09/22 06:56:15;;;;;;;34.45;7.50;;;;;;;11.94;100.00;102665.66;5079035;28;20050;-74
2021/09/22 06:58:41;;;;;;;34.88;7.03;;;;;;;12.02;100.00;102658.06;5082444;28;20028;-74
2021/09/22 07:01:06;;;;;;;28.00;7.43;;;;;;;12.05;100.00;102662.25;5081907;28;20032;-73
2021/09/22 07:03:32;;;;;;;28.98;6.57;;;;;;;12.13;100.00;102664.34;5069346;28;20047;-75
2021/09/22 07:05:57;;;;;;;31.52;6.25;;;;;;;12.24;100.00;102661.78;5081976;28;20085;-72
2021/09/22 07:08:25;;;;;;;30.77;6.20;;;;;;;12.30;100.00;102656.09;5083592;28;20032;-73
2021/09/22 07:10:51;;;;;;;29.45;6.10;;;;;;;12.34;100.00;102668.06;5088926;28;20040;-73
2021/09/22 07:13:17;;;;;;;42.53;7.45;;;;;;;12.43;100.00;102661.28;5088796;28;20837;-74
2021/09/22 07:15:42;;;;;;;29.10;6.50;;;;;;;12.55;100.00;102656.94;5081822;28;20140;-72
2021/09/22 07:18:09;;;;;;;26.77;5.57;;;;;;;12.60;100.00;102654.78;5086993;28;20032;-72
2021/09/22 07:20:35;;;;;;;25.55;6.35;;;;;;;12.69;100.00;102662.00;5087551;28;20063;-72
2021/09/22 07:23:01;;;;;;;32.25;7.10;;;;;;;12.88;100.00;102663.28;5082201;28;20098;-75
2021/09/22 07:25:27;;;;;;;28.70;6.60;;;;;;;12.92;100.00;102664.72;5087605;28;20032;-72
2021/09/22 07:27:52;;;;;;;27.05;6.57;;;;;;;12.95;100.00;102665.34;5088068;28;20035;-72
2021/09/22 07:30:18;;;;;;;25.60;6.80;;;;;;;13.05;100.00;102665.47;5086452;28;20028;-72
2021/09/22 07:32:47;;;;;;;18.80;5.80;;;;;;;13.08;100.00;102664.41;5086498;28;20447;-74
2021/09/22 07:35:13;;;;;;;25.70;5.80;;;;;;;13.20;100.00;102663.47;5085791;28;20097;-75
2021/09/22 07:37:39;;;;;;;27.85;6.55;;;;;;;13.31;100.00;102667.97;5087401;28;20393;-73
2021/09/22 07:40:06;;;;;;;28.52;7.28;;;;;;;13.35;100.00;102664.97;5069528;28;20119;-76
2021/09/22 07:42:32;;;;;;;26.48;6.82;;;;;;;13.42;100.00;102663.53;5068912;28;20027;-71
2021/09/22 07:44:57;;;;;;;26.40;6.38;;;;;;;13.41;100.00;102672.41;5067337;28;20500;-73
2021/09/22 07:47:23;;;;;;;23.80;6.60;;;;;;;13.45;100.00;102678.31;5071888;28;20108;-74
2021/09/22 07:49:49;;;;;;;23.17;6.72;;;;;;;13.54;100.00;102667.06;5085210;28;20488;-72
2021/09/22 07:52:15;;;;;;;23.75;6.68;;;;;;;13.72;100.00;102666.56;5061477;28;20030;-73
2021/09/22 07:54:41;;;;;;;22.98;6.15;;;;;;;13.92;100.00;102668.47;5073794;28;20521;-73
2021/09/22 07:57:07;;;;;;;22.90;6.38;;;;;;;14.03;100.00;102670.25;5081364;28;20037;-73
2021/09/22 07:59:33;;;;;;;20.23;5.97;;;;;;;14.09;100.00;102669.78;5066248;28;20381;-71
2021/09/22 08:01:59;;;;;;;29.48;5.93;;;;;;;14.22;100.00;102666.97;5069212;28;20031;-74
2021/09/22 08:04:25;;;;;;;20.75;5.80;;;;;;;14.31;100.00;102660.94;5070371;28;20394;-72
2021/09/22 08:06:51;;;;;;;27.77;5.22;;;;;;;14.50;100.00;102662.09;5078066;28;20024;-71
2021/09/22 08:09:17;;;;;;;20.23;5.22;;;;;;;14.70;100.00;102665.78;5077399;28;20043;-77
2021/09/22 08:11:44;;;;;;;20.52;5.20;;;;;;;14.90;100.00;102669.38;5083944;28;20040;-71
2021/09/22 08:14:09;;;;;;;24.95;5.40;;;;;;;15.09;100.00;102658.13;5084183;28;20033;-71
2021/09/22 08:16:35;;;;;;;19.13;5.10;;;;;;;15.41;100.00;102668.63;5075927;28;20024;-74
2021/09/22 08:19:00;;;;;;;19.73;4.60;;;;;;;15.68;100.00;102657.44;5070803;28;20377;-76
2021/09/22 08:21:26;;;;;;;22.80;5.78;;;;;;;15.90;99.47;102666.19;5081852;28;20300;-72
2021/09/22 08:23:51;;;;;;;22.20;4.57;;;;;;;15.89;100.00;102657.41;5087663;28;20464;-72
2021/09/22 08:26:17;;;;;;;18.02;4.38;;;;;;;15.79;100.00;102653.06;5084641;28;20097;-74
2021/09/22 08:28:43;;;;;;;21.10;5.28;;;;;;;15.78;99.54;102652.22;5085488;28;20119;-75
2021/09/22 08:31:08;;;;;;;23.05;4.85;;;;;;;15.70;99.72;102652.03;5072229;28;20109;-72
2021/09/22 08:33:35;;;;;;;22.70;4.70;;;;;;;15.64;100.00;102656.03;5070992;28;20101;-72
2021/09/22 08:36:00;;;;;;;20.33;5.03;;;;;;;15.58;100.00;102660.06;5090249;28;20039;-75
2021/09/22 08:38:26;;;;;;;21.38;5.32;;;;;;;15.51;100.00;102650.16;5086127;28;20467;-75
2021/09/22 08:40:53;;;;;;;18.90;4.60;;;;;;;15.50;100.00;102662.53;5080592;28;20050;-74
2021/09/22 08:43:23;;;;;;;18.83;5.53;;;;;;;15.57;100.00;102641.66;5089645;28;20032;-74
2021/09/22 08:45:48;;;;;;;18.20;4.90;;;;;;;15.77;100.00;102651.38;5083865;28;20493;-74
2021/09/22 08:48:14;;;;;;;18.05;4.22;;;;;;;15.84;100.00;102648.19;5085481;28;20093;-73
2021/09/22 08:50:40;;;;;;;25.75;4.43;;;;;;;15.96;100.00;102652.41;5088395;28;20035;-73
2021/09/22 08:53:07;;;;;;;23.27;4.45;;;;;;;16.03;100.00;102653.56;5088417;28;20526;-74
2021/09/22 08:55:32;;;;;;;20.65;4.50;;;;;;;16.15;99.62;102654.28;5077162;28;20021;-72
2021/09/22 08:58:00;;;;;;;26.02;4.45;;;;;;;16.19;100.00;102660.97;5085730;28;20504;-72
2021/09/22 09:00:26;;;;;;;19.77;4.07;;;;;;;16.09;100.00;102662.78;5083798;28;20115;-73
2021/09/22 09:02:51;;;;;;;17.45;3.58;;;;;;;16.07;100.00;102654.13;5088271;28;20784;-72
2021/09/22 09:05:20;;;;;;;15.20;3.97;;;;;;;16.03;99.00;102658.00;5086750;28;20037;-73
2021/09/22 09:07:48;;;;;;;19.02;3.75;;;;;;;16.06;99.99;102663.03;5078624;28;20032;-72
2021/09/22 09:10:14;;;;;;;20.70;4.20;;;;;;;16.03;100.00;102648.25;5071857;28;20032;-74
2021/09/22 09:12:40;;;;;;;19.35;4.25;;;;;;;16.00;100.00;102651.16;5088682;28;20055;-76
2021/09/22 09:15:12;;;;;;;18.17;4.22;;;;;;;15.96;100.00;102650.59;5071687;28;20204;-72
2021/09/22 09:17:44;;;;;;;16.23;3.90;;;;;;;16.11;100.00;102644.94;5088467;28;20634;-72
2021/09/22 09:20:14;;;;;;;14.07;3.67;;;;;;;16.13;100.00;102632.41;5090091;28;20150;-72
2021/09/22 09:22:40;;;;;;;18.50;4.90;;;;;;;16.20;100.00;102635.31;5085340;28;20341;-73
2021/09/22 09:25:07;;;;;;;16.33;4.53;;;;;;;16.24;97.92;102628.78;5084435;28;20499;-72
2021/09/22 09:27:35;;;;;;;21.20;4.97;;;;;;;16.30;97.64;102634.34;5089317;28;20036;-72
2021/09/22 09:30:17;;;;;;;14.55;4.07;;;;;;;16.26;100.00;102632.97;5089794;28;20310;-73
2021/09/22 09:32:43;;;;;;;18.42;4.85;;;;;;;16.30;97.65;102639.66;5086310;28;20063;-72
2021/09/22 09:35:14;;;;;;;16.90;4.70;;;;;;;16.30;95.82;102641.47;5089277;28;20501;-74
2021/09/22 09:37:43;;;;;;;14.60;4.25;;;;;;;16.35;96.53;102640.09;5068417;28;20059;-72
2021/09/22 09:40:21;;;;;;;13.98;4.20;;;;;;;16.49;96.55;102632.69;5073077;28;20039;-72
2021/09/22 09:42:49;;;;;;;17.38;4.82;;;;;;;16.73;99.01;102641.06;5055734;28;20060;-75
2021/09/22 09:45:19;;;;;;;12.55;3.97;;;;;;;16.86;95.40;102645.28;5073690;28;20085;-72
2021/09/22 09:47:58;;;;;;;14.55;3.72;;;;;;;17.14;94.46;102643.53;5057608;28;20036;-72
2021/09/22 09:50:24;;;;;;;7.65;3.20;;;;;;;17.39;92.46;102646.53;5087132;28;20032;-72
2021/09/22 09:52:51;;;;;;;11.60;3.92;;;;;;;17.45;91.85;102653.91;5084887;28;20066;-74
2021/09/22 09:55:23;;;;;;;13.80;3.88;;;;;;;17.44;92.77;102649.56;5081377;28;20042;-72
2021/09/22 09:57:50;;;;;;;11.40;3.83;;;;;;;17.42;92.28;102665.66;5086447;28;20412;-73
2021/09/22 10:00:25;;;;;;;14.88;4.25;;;;;;;17.16;93.13;102657.50;5078373;28;20177;-74
2021/09/22 10:02:52;;;;;;;13.88;4.25;;;;;;;16.98;94.79;102667.16;5079273;28;20039;-72
2021/09/22 10:05:18;;;;;;;16.92;4.55;;;;;;;16.91;93.30;102661.56;5080046;28;20404;-73
2021/09/22 10:07:47;;;;;;;17.48;4.57;;;;;;;16.86;94.47;102658.53;5083520;28;20028;-73
2021/09/22 10:10:14;;;;;;;15.55;4.38;;;;;;;16.83;92.80;102650.84;5078587;28;20031;-73
2021/09/22 10:12:41;;;;;;;13.95;4.22;;;;;;;16.93;94.01;102654.31;5051000;28;20043;-73
2021/09/22 10:15:08;;;;;;;12.18;3.88;;;;;;;16.93;92.36;102656.94;5086387;28;20036;-75
2021/09/22 10:17:36;;;;;;;11.95;3.78;;;;;;;16.77;91.73;102649.56;5066681;28;20478;-75
2021/09/22 10:20:03;;;;;;;12.30;4.35;;;;;;;16.85;95.08;102654.19;5056392;28;20488;-72
2021/09/22 10:22:28;;;;;;;15.43;4.25;;;;;;;16.91;92.70;102643.00;5068015;28;20058;-75
2021/09/22 10:25:05;;;;;;;14.45;4.05;;;;;;;17.03;93.52;102647.19;5064012;28;20388;-76
2021/09/22 10:27:46;;;;;;;15.10;4.40;;;;;;;17.02;95.92;102649.97;5098730;27;20145;-75
2021/09/22 10:30:40;;;;;;;9.50;4.25;;;;;;;17.08;92.70;102644.09;5104537;27;20743;-71
2021/09/22 10:33:26;;;;;;;12.38;3.88;;;;;;;17.63;91.34;102643.34;5061990;28;20395;-73
2021/09/22 10:36:05;;;;;;;13.43;3.85;;;;;;;18.06;88.10;102645.38;5083904;27;20386;-75
2021/09/22 10:38:48;;;;;;;14.90;4.15;;;;;;;18.39;86.70;102644.88;5087712;27;20386;-73
2021/09/22 10:41:27;;;;;;;13.52;3.60;;;;;;;18.26;85.40;102640.75;5084645;27;20416;-74
2021/09/22 10:44:04;;;;;;;11.77;3.80;;;;;;;17.83;86.65;102642.25;5087779;27;20382;-79
2021/09/22 10:46:40;;;;;;;13.85;3.78;;;;;;;17.51;89.63;102635.56;5057491;28;20134;-74
2021/09/22 10:49:17;;;;;;;11.82;3.80;;;;;;;17.54;91.02;102636.25;5064275;28;20130;-72
2021/09/22 10:51:54;;;;;;;13.48;3.97;;;;;;;17.90;91.31;102635.41;5084274;27;20134;-74
2021/09/22 10:54:33;;;;;;;14.88;3.22;;;;;;;17.92;88.36;102624.66;5063612;28;20383;-74
2021/09/22 10:57:13;;;;;;;16.48;3.53;;;;;;;17.86;84.75;102622.59;5063767;28;20415;-73
2021/09/22 11:00:08;;;;;;;10.65;3.35;;;;;;;18.05;87.45;102614.50;5068141;28;20992;-78
2021/09/22 11:02:49;;;;;;;13.32;3.47;;;;;;;18.27;89.97;102617.69;5063176;28;20924;-74
2021/09/22 11:05:25;;;;;;;11.23;2.33;;;;;;;18.35;82.91;102606.31;5063375;28;20391;-73
2021/09/22 11:08:06;;;;;;;14.88;3.08;;;;;;;18.59;85.29;102606.53;5099791;27;20129;-75
2021/09/22 11:10:53;;;;;;;9.88;2.72;;;;;;;18.75;83.47;102599.66;5064705;28;20880;-72
2021/09/22 11:13:34;;;;;;;10.32;2.78;;;;;;;18.82;80.15;102595.44;5064541;28;20388;-75
2021/09/22 11:16:18;;;;;;;17.00;2.78;;;;;;;19.12;81.14;102606.56;5062987;28;20387;-73
2021/09/22 11:18:57;;;;;;;6.18;2.55;;;;;;;19.49;77.37;102603.56;5092163;27;20398;-72
2021/09/22 11:21:37;;;;;;;8.65;2.10;;;;;;;19.49;75.52;102605.41;5063819;28;20383;-73
2021/09/22 11:24:15;;;;;;;8.27;2.58;;;;;;;19.47;77.23;102610.06;5086605;27;20401;-73
2021/09/22 11:26:57;;;;;;;9.13;2.50;;;;;;;19.65;75.96;102602.81;5064658;28;20379;-74
2021/09/22 11:29:36;;;;;;;11.00;2.58;;;;;;;19.68;76.70;102597.16;5086679;27;20394;-75
2021/09/22 11:32:31;;;;;;;14.65;2.53;;;;;;;19.29;74.78;102612.78;5066081;28;20391;-74